sensor_id;sensor_type;location;lat;lon;timestamp;P1;durP1;ratioP1;P2;durP2;ratioP2
68579;SDS011;55555;52.136;5.424;2022-09-17T00:01:22;17.50;;;3.05;;
68579;SDS011;55555;52.136;5.424;2022-09-17T00:03:52;19.65;;;2.65;;
68579;SDS011;55555;52.136;5.424;2022-09-17T00:06:23;15.93;;;2.30;;
68579;SDS011;55555;52.136;5.424;2022-09-17T00:08:51;21.63;;;3.30;;
68579;SDS011;55555;52.136;5.424;2022-09-17T00:11:23;14.97;;;2.57;;
68579;SDS011;55555;52.136;5.424;2022-09-17T00:13:54;12.50;;;2.70;;
68579;SDS011;55555;52.136;5.424;2022-09-17T00:16:24;19.48;;;2.65;;
68579;SDS011;55555;52.136;5.424;2022-09-17T00:18:59;20.30;;;3.30;;
68579;SDS011;55555;52.136;5.424;2022-09-17T00:21:26;20.30;;;3.22;;
68579;SDS011;55555;52.136;5.424;2022-09-17T00:23:55;22.37;;;2.63;;
68579;SDS011;55555;52.136;5.424;2022-09-17T00:26:24;21.83;;;3.13;;
68579;SDS011;55555;52.136;5.424;2022-09-17T00:28:52;13.32;;;2.55;;
68579;SDS011;55555;52.136;5.424;2022-09-17T00:31:21;15.00;;;2.33;;
68579;SDS011;55555;52.136;5.424;2022-09-17T00:33:49;16.15;;;2.17;;
68579;SDS011;55555;52.136;5.424;2022-09-17T00:36:17;15.60;;;2.53;;
68579;SDS011;55555;52.136;5.424;2022-09-17T00:38:49;15.43;;;2.22;;
68579;SDS011;55555;52.136;5.424;2022-09-17T00:41:21;14.93;;;2.53;;
68579;SDS011;55555;52.136;5.424;2022-09-17T00:43:55;12.95;;;2.15;;
68579;SDS011;55555;52.136;5.424;2022-09-17T00:46:47;12.30;;;2.10;;
68579;SDS011;55555;52.136;5.424;2022-09-17T00:49:19;11.33;;;2.20;;
68579;SDS011;55555;52.136;5.424;2022-09-17T00:51:55;18.50;;;2.10;;
68579;SDS011;55555;52.136;5.424;2022-09-17T00:54:27;12.82;;;2.20;;
68579;SDS011;55555;52.136;5.424;2022-09-17T00:56:54;15.82;;;2.33;;
68579;SDS011;55555;52.136;5.424;2022-09-17T00:59:22;12.90;;;2.30;;
68579;SDS011;55555;52.136;5.424;2022-09-17T01:01:49;18.97;;;1.93;;
68579;SDS011;55555;52.136;5.424;2022-09-17T01:04:17;13.32;;;1.80;;
68579;SDS011;55555;52.136;5.424;2022-09-17T01:09:52;17.02;;;2.67;;
68579;SDS011;55555;52.136;5.424;2022-09-17T01:22:17;17.35;;;2.20;;
68579;SDS011;55555;52.136;5.424;2022-09-17T01:31:10;14.27;;;1.87;;
68579;SDS011;55555;52.136;5.424;2022-09-17T01:36:57;18.05;;;2.00;;
68579;SDS011;55555;52.136;5.424;2022-09-17T01:39:49;15.38;;;2.20;;
68579;SDS011;55555;52.136;5.424;2022-09-17T01:42:35;17.58;;;2.05;;
68579;SDS011;55555;52.136;5.424;2022-09-17T01:45:15;11.33;;;1.80;;
68579;SDS011;55555;52.136;5.424;2022-09-17T01:48:15;17.17;;;1.83;;
68579;SDS011;55555;52.136;5.424;2022-09-17T01:50:47;9.35;;;1.42;;
68579;SDS011;55555;52.136;5.424;2022-09-17T01:53:22;13.00;;;2.80;;
68579;SDS011;55555;52.136;5.424;2022-09-17T01:55:56;10.05;;;1.70;;
68579;SDS011;55555;52.136;5.424;2022-09-17T01:58:27;9.80;;;1.33;;
68579;SDS011;55555;52.136;5.424;2022-09-17T02:01:01;8.07;;;1.50;;
68579;SDS011;55555;52.136;5.424;2022-09-17T02:03:39;12.65;;;1.60;;
68579;SDS011;55555;52.136;5.424;2022-09-17T02:06:30;7.90;;;1.50;;
68579;SDS011;55555;52.136;5.424;2022-09-17T02:11:41;12.47;;;1.43;;
68579;SDS011;55555;52.136;5.424;2022-09-17T02:14:16;11.73;;;2.05;;
68579;SDS011;55555;52.136;5.424;2022-09-17T02:17:04;9.70;;;1.38;;
68579;SDS011;55555;52.136;5.424;2022-09-17T02:19:41;9.00;;;1.90;;
68579;SDS011;55555;52.136;5.424;2022-09-17T02:25:16;11.00;;;1.57;;
68579;SDS011;55555;52.136;5.424;2022-09-17T02:31:12;9.65;;;1.45;;
68579;SDS011;55555;52.136;5.424;2022-09-17T02:33:40;7.80;;;1.42;;
68579;SDS011;55555;52.136;5.424;2022-09-17T02:36:10;8.68;;;1.33;;
68579;SDS011;55555;52.136;5.424;2022-09-17T02:38:37;9.40;;;1.70;;
68579;SDS011;55555;52.136;5.424;2022-09-17T02:41:15;9.02;;;1.23;;
68579;SDS011;55555;52.136;5.424;2022-09-17T02:49:35;15.95;;;1.83;;
68579;SDS011;55555;52.136;5.424;2022-09-17T03:00:43;7.40;;;1.13;;
68579;SDS011;55555;52.136;5.424;2022-09-17T03:03:12;9.52;;;1.80;;
68579;SDS011;55555;52.136;5.424;2022-09-17T03:05:46;13.50;;;1.60;;
68579;SDS011;55555;52.136;5.424;2022-09-17T03:08:15;10.38;;;1.88;;
68579;SDS011;55555;52.136;5.424;2022-09-17T03:10:45;13.25;;;2.05;;
68579;SDS011;55555;52.136;5.424;2022-09-17T03:13:14;8.07;;;1.70;;
68579;SDS011;55555;52.136;5.424;2022-09-17T03:15:41;10.77;;;2.10;;
68579;SDS011;55555;52.136;5.424;2022-09-17T03:18:08;11.23;;;1.80;;
68579;SDS011;55555;52.136;5.424;2022-09-17T03:20:35;11.30;;;1.90;;
68579;SDS011;55555;52.136;5.424;2022-09-17T03:23:02;16.00;;;2.47;;
68579;SDS011;55555;52.136;5.424;2022-09-17T03:25:29;7.45;;;1.13;;
68579;SDS011;55555;52.136;5.424;2022-09-17T03:27:56;15.88;;;1.88;;
68579;SDS011;55555;52.136;5.424;2022-09-17T03:30:23;9.37;;;2.50;;
68579;SDS011;55555;52.136;5.424;2022-09-17T03:32:49;11.00;;;1.90;;
68579;SDS011;55555;52.136;5.424;2022-09-17T03:35:16;9.82;;;1.65;;
68579;SDS011;55555;52.136;5.424;2022-09-17T03:37:43;9.40;;;1.85;;
68579;SDS011;55555;52.136;5.424;2022-09-17T03:40:12;16.75;;;2.10;;
68579;SDS011;55555;52.136;5.424;2022-09-17T03:42:39;10.37;;;1.90;;
68579;SDS011;55555;52.136;5.424;2022-09-17T03:45:06;9.93;;;1.20;;
68579;SDS011;55555;52.136;5.424;2022-09-17T03:47:34;10.20;;;1.30;;
68579;SDS011;55555;52.136;5.424;2022-09-17T03:50:02;15.02;;;2.35;;
68579;SDS011;55555;52.136;5.424;2022-09-17T03:52:31;11.25;;;2.08;;
68579;SDS011;55555;52.136;5.424;2022-09-17T03:54:58;13.13;;;1.60;;
68579;SDS011;55555;52.136;5.424;2022-09-17T03:57:24;14.70;;;1.77;;
68579;SDS011;55555;52.136;5.424;2022-09-17T03:59:51;11.82;;;2.08;;
68579;SDS011;55555;52.136;5.424;2022-09-17T04:02:18;11.40;;;2.45;;
68579;SDS011;55555;52.136;5.424;2022-09-17T04:04:45;13.88;;;1.67;;
68579;SDS011;55555;52.136;5.424;2022-09-17T04:07:13;12.20;;;1.67;;
68579;SDS011;55555;52.136;5.424;2022-09-17T04:09:40;11.73;;;1.90;;
68579;SDS011;55555;52.136;5.424;2022-09-17T04:12:07;12.40;;;1.90;;
68579;SDS011;55555;52.136;5.424;2022-09-17T04:14:33;13.55;;;1.73;;
68579;SDS011;55555;52.136;5.424;2022-09-17T04:17:00;16.17;;;2.08;;
68579;SDS011;55555;52.136;5.424;2022-09-17T04:19:27;9.60;;;1.70;;
68579;SDS011;55555;52.136;5.424;2022-09-17T04:21:54;14.98;;;2.15;;
68579;SDS011;55555;52.136;5.424;2022-09-17T04:24:21;11.40;;;1.95;;
68579;SDS011;55555;52.136;5.424;2022-09-17T04:26:48;12.63;;;1.88;;
68579;SDS011;55555;52.136;5.424;2022-09-17T04:29:15;12.57;;;1.80;;
68579;SDS011;55555;52.136;5.424;2022-09-17T04:31:42;9.83;;;1.43;;
68579;SDS011;55555;52.136;5.424;2022-09-17T04:34:09;12.57;;;1.50;;
68579;SDS011;55555;52.136;5.424;2022-09-17T04:36:36;13.80;;;2.15;;
68579;SDS011;55555;52.136;5.424;2022-09-17T04:39:02;8.55;;;1.80;;
68579;SDS011;55555;52.136;5.424;2022-09-17T04:41:29;7.97;;;1.60;;
68579;SDS011;55555;52.136;5.424;2022-09-17T04:43:56;8.70;;;2.07;;
68579;SDS011;55555;52.136;5.424;2022-09-17T04:46:23;12.25;;;1.60;;
68579;SDS011;55555;52.136;5.424;2022-09-17T04:48:50;7.80;;;1.73;;
68579;SDS011;55555;52.136;5.424;2022-09-17T04:51:17;11.32;;;1.58;;
68579;SDS011;55555;52.136;5.424;2022-09-17T04:53:44;9.32;;;1.77;;
68579;SDS011;55555;52.136;5.424;2022-09-17T04:56:11;12.73;;;1.93;;
68579;SDS011;55555;52.136;5.424;2022-09-17T04:58:38;8.77;;;1.30;;
68579;SDS011;55555;52.136;5.424;2022-09-17T05:01:05;9.80;;;1.50;;
68579;SDS011;55555;52.136;5.424;2022-09-17T05:03:32;12.05;;;1.98;;
68579;SDS011;55555;52.136;5.424;2022-09-17T05:05:59;9.43;;;1.17;;
68579;SDS011;55555;52.136;5.424;2022-09-17T05:08:27;8.63;;;1.80;;
68579;SDS011;55555;52.136;5.424;2022-09-17T05:10:53;14.25;;;1.67;;
68579;SDS011;55555;52.136;5.424;2022-09-17T05:13:21;11.27;;;2.00;;
68579;SDS011;55555;52.136;5.424;2022-09-17T05:15:48;10.50;;;1.40;;
68579;SDS011;55555;52.136;5.424;2022-09-17T05:18:15;9.80;;;1.85;;
68579;SDS011;55555;52.136;5.424;2022-09-17T05:20:42;8.10;;;1.20;;
68579;SDS011;55555;52.136;5.424;2022-09-17T05:23:09;7.93;;;1.20;;
68579;SDS011;55555;52.136;5.424;2022-09-17T05:25:36;6.70;;;1.27;;
68579;SDS011;55555;52.136;5.424;2022-09-17T05:28:03;11.15;;;1.77;;
68579;SDS011;55555;52.136;5.424;2022-09-17T05:30:30;9.63;;;1.55;;
68579;SDS011;55555;52.136;5.424;2022-09-17T05:33:01;7.20;;;1.27;;
68579;SDS011;55555;52.136;5.424;2022-09-17T05:35:30;11.25;;;1.40;;
68579;SDS011;55555;52.136;5.424;2022-09-17T05:37:59;7.72;;;1.27;;
68579;SDS011;55555;52.136;5.424;2022-09-17T05:40:28;15.15;;;1.60;;
68579;SDS011;55555;52.136;5.424;2022-09-17T05:43:00;10.88;;;1.27;;
68579;SDS011;55555;52.136;5.424;2022-09-17T05:45:31;12.03;;;1.57;;
68579;SDS011;55555;52.136;5.424;2022-09-17T05:47:59;9.88;;;1.00;;
68579;SDS011;55555;52.136;5.424;2022-09-17T05:50:28;7.90;;;1.23;;
68579;SDS011;55555;52.136;5.424;2022-09-17T05:52:56;6.95;;;1.40;;
68579;SDS011;55555;52.136;5.424;2022-09-17T05:55:27;12.50;;;1.45;;
68579;SDS011;55555;52.136;5.424;2022-09-17T05:57:54;10.20;;;1.63;;
68579;SDS011;55555;52.136;5.424;2022-09-17T06:00:21;7.93;;;1.48;;
68579;SDS011;55555;52.136;5.424;2022-09-17T06:02:55;9.48;;;1.50;;
68579;SDS011;55555;52.136;5.424;2022-09-17T06:05:25;13.63;;;1.63;;
68579;SDS011;55555;52.136;5.424;2022-09-17T06:07:52;9.18;;;1.90;;
68579;SDS011;55555;52.136;5.424;2022-09-17T06:10:19;14.17;;;2.50;;
68579;SDS011;55555;52.136;5.424;2022-09-17T06:12:46;9.70;;;1.70;;
68579;SDS011;55555;52.136;5.424;2022-09-17T06:15:13;12.18;;;1.73;;
68579;SDS011;55555;52.136;5.424;2022-09-17T06:17:40;6.38;;;1.48;;
68579;SDS011;55555;52.136;5.424;2022-09-17T06:20:07;9.98;;;1.30;;
68579;SDS011;55555;52.136;5.424;2022-09-17T06:22:35;10.17;;;1.90;;
68579;SDS011;55555;52.136;5.424;2022-09-17T06:25:02;8.57;;;1.13;;
68579;SDS011;55555;52.136;5.424;2022-09-17T06:27:32;9.02;;;1.88;;
68579;SDS011;55555;52.136;5.424;2022-09-17T06:30:00;8.68;;;1.30;;
68579;SDS011;55555;52.136;5.424;2022-09-17T06:32:27;7.18;;;1.65;;
68579;SDS011;55555;52.136;5.424;2022-09-17T06:34:55;6.33;;;1.33;;
68579;SDS011;55555;52.136;5.424;2022-09-17T06:37:28;7.80;;;1.60;;
68579;SDS011;55555;52.136;5.424;2022-09-17T06:39:57;7.97;;;1.35;;
68579;SDS011;55555;52.136;5.424;2022-09-17T06:42:25;9.35;;;1.60;;
68579;SDS011;55555;52.136;5.424;2022-09-17T06:44:53;9.60;;;1.70;;
68579;SDS011;55555;52.136;5.424;2022-09-17T06:47:22;10.70;;;1.83;;
68579;SDS011;55555;52.136;5.424;2022-09-17T06:49:50;10.55;;;1.80;;
68579;SDS011;55555;52.136;5.424;2022-09-17T06:52:17;13.90;;;1.75;;
68579;SDS011;55555;52.136;5.424;2022-09-17T06:54:44;7.72;;;1.30;;
68579;SDS011;55555;52.136;5.424;2022-09-17T06:57:11;11.15;;;1.80;;
68579;SDS011;55555;52.136;5.424;2022-09-17T06:59:38;9.33;;;1.40;;
68579;SDS011;55555;52.136;5.424;2022-09-17T07:02:05;8.70;;;1.40;;
68579;SDS011;55555;52.136;5.424;2022-09-17T07:04:33;7.97;;;1.20;;
68579;SDS011;55555;52.136;5.424;2022-09-17T07:07:00;11.07;;;1.52;;
68579;SDS011;55555;52.136;5.424;2022-09-17T07:09:27;11.23;;;1.85;;
68579;SDS011;55555;52.136;5.424;2022-09-17T07:11:54;9.40;;;1.70;;
68579;SDS011;55555;52.136;5.424;2022-09-17T07:14:21;8.45;;;1.40;;
68579;SDS011;55555;52.136;5.424;2022-09-17T07:16:50;6.93;;;1.45;;
68579;SDS011;55555;52.136;5.424;2022-09-17T07:19:18;10.52;;;1.63;;
68579;SDS011;55555;52.136;5.424;2022-09-17T07:21:46;9.85;;;1.50;;
68579;SDS011;55555;52.136;5.424;2022-09-17T07:24:14;9.77;;;1.43;;
68579;SDS011;55555;52.136;5.424;2022-09-17T07:26:41;9.18;;;1.67;;
68579;SDS011;55555;52.136;5.424;2022-09-17T07:29:08;13.65;;;1.98;;
68579;SDS011;55555;52.136;5.424;2022-09-17T07:31:35;7.13;;;1.50;;
68579;SDS011;55555;52.136;5.424;2022-09-17T07:34:02;13.00;;;1.73;;
68579;SDS011;55555;52.136;5.424;2022-09-17T07:36:29;8.40;;;1.60;;
68579;SDS011;55555;52.136;5.424;2022-09-17T07:38:56;8.55;;;1.10;;
68579;SDS011;55555;52.136;5.424;2022-09-17T07:41:23;8.23;;;1.58;;
68579;SDS011;55555;52.136;5.424;2022-09-17T07:43:51;10.30;;;1.80;;
68579;SDS011;55555;52.136;5.424;2022-09-17T07:46:20;8.15;;;1.10;;
68579;SDS011;55555;52.136;5.424;2022-09-17T07:48:47;12.90;;;1.93;;
68579;SDS011;55555;52.136;5.424;2022-09-17T07:51:16;11.50;;;1.42;;
68579;SDS011;55555;52.136;5.424;2022-09-17T07:53:52;11.00;;;1.35;;
68579;SDS011;55555;52.136;5.424;2022-09-17T07:56:21;5.82;;;1.30;;
68579;SDS011;55555;52.136;5.424;2022-09-17T07:58:48;9.57;;;1.63;;
68579;SDS011;55555;52.136;5.424;2022-09-17T08:01:16;6.37;;;1.30;;
68579;SDS011;55555;52.136;5.424;2022-09-17T08:03:47;6.43;;;1.25;;
68579;SDS011;55555;52.136;5.424;2022-09-17T08:06:20;10.52;;;1.42;;
68579;SDS011;55555;52.136;5.424;2022-09-17T08:08:51;10.13;;;1.33;;
68579;SDS011;55555;52.136;5.424;2022-09-17T08:11:18;6.18;;;1.13;;
68579;SDS011;55555;52.136;5.424;2022-09-17T08:14:10;7.40;;;1.30;;
68579;SDS011;55555;52.136;5.424;2022-09-17T08:16:40;8.60;;;1.20;;
68579;SDS011;55555;52.136;5.424;2022-09-17T08:19:07;5.53;;;0.95;;
68579;SDS011;55555;52.136;5.424;2022-09-17T08:21:37;7.32;;;1.33;;
68579;SDS011;55555;52.136;5.424;2022-09-17T08:24:04;9.75;;;1.60;;
68579;SDS011;55555;52.136;5.424;2022-09-17T08:26:31;10.17;;;1.50;;
68579;SDS011;55555;52.136;5.424;2022-09-17T08:28:58;8.13;;;1.30;;
68579;SDS011;55555;52.136;5.424;2022-09-17T08:31:26;5.90;;;1.38;;
68579;SDS011;55555;52.136;5.424;2022-09-17T08:33:55;5.03;;;1.00;;
68579;SDS011;55555;52.136;5.424;2022-09-17T08:36:22;7.43;;;1.40;;
68579;SDS011;55555;52.136;5.424;2022-09-17T08:38:51;6.67;;;1.37;;
68579;SDS011;55555;52.136;5.424;2022-09-17T08:41:23;5.43;;;0.70;;
68579;SDS011;55555;52.136;5.424;2022-09-17T08:44:20;5.40;;;1.02;;
68579;SDS011;55555;52.136;5.424;2022-09-17T08:47:10;7.22;;;1.20;;
68579;SDS011;55555;52.136;5.424;2022-09-17T08:49:56;9.23;;;1.25;;
68579;SDS011;55555;52.136;5.424;2022-09-17T08:55:34;6.68;;;1.05;;
68579;SDS011;55555;52.136;5.424;2022-09-17T09:01:22;4.35;;;0.93;;
68579;SDS011;55555;52.136;5.424;2022-09-17T09:07:40;8.20;;;1.33;;
68579;SDS011;55555;52.136;5.424;2022-09-17T09:10:24;9.57;;;1.20;;
68579;SDS011;55555;52.136;5.424;2022-09-17T09:12:57;10.63;;;1.42;;
68579;SDS011;55555;52.136;5.424;2022-09-17T09:15:45;8.10;;;1.67;;
68579;SDS011;55555;52.136;5.424;2022-09-17T09:18:20;6.82;;;1.38;;
68579;SDS011;55555;52.136;5.424;2022-09-17T09:20:51;6.13;;;1.43;;
68579;SDS011;55555;52.136;5.424;2022-09-17T09:26:16;7.90;;;1.23;;
68579;SDS011;55555;52.136;5.424;2022-09-17T09:29:07;11.32;;;1.13;;
68579;SDS011;55555;52.136;5.424;2022-09-17T09:31:55;11.25;;;1.60;;
68579;SDS011;55555;52.136;5.424;2022-09-17T09:34:46;6.50;;;1.20;;
68579;SDS011;55555;52.136;5.424;2022-09-17T09:39:52;9.23;;;1.60;;
68579;SDS011;55555;52.136;5.424;2022-09-17T09:42:31;6.97;;;1.58;;
68579;SDS011;55555;52.136;5.424;2022-09-17T09:45:14;4.70;;;1.10;;
68579;SDS011;55555;52.136;5.424;2022-09-17T09:56:56;9.73;;;1.40;;
68579;SDS011;55555;52.136;5.424;2022-09-17T09:59:30;9.23;;;1.60;;
68579;SDS011;55555;52.136;5.424;2022-09-17T10:01:57;11.77;;;1.87;;
68579;SDS011;55555;52.136;5.424;2022-09-17T10:04:25;8.45;;;1.52;;
68579;SDS011;55555;52.136;5.424;2022-09-17T10:06:59;16.85;;;2.20;;
68579;SDS011;55555;52.136;5.424;2022-09-17T10:09:37;7.50;;;1.80;;
68579;SDS011;55555;52.136;5.424;2022-09-17T10:14:38;7.53;;;1.20;;
68579;SDS011;55555;52.136;5.424;2022-09-17T10:17:14;5.90;;;1.20;;
68579;SDS011;55555;52.136;5.424;2022-09-17T10:19:43;6.90;;;1.17;;
68579;SDS011;55555;52.136;5.424;2022-09-17T10:22:33;5.72;;;0.95;;
68579;SDS011;55555;52.136;5.424;2022-09-17T10:25:02;5.05;;;1.50;;
68579;SDS011;55555;52.136;5.424;2022-09-17T10:27:31;7.73;;;1.30;;
68579;SDS011;55555;52.136;5.424;2022-09-17T10:30:13;6.78;;;1.02;;
68579;SDS011;55555;52.136;5.424;2022-09-17T10:32:42;6.82;;;1.02;;
68579;SDS011;55555;52.136;5.424;2022-09-17T10:37:46;9.93;;;1.33;;
68579;SDS011;55555;52.136;5.424;2022-09-17T10:45:42;7.75;;;1.55;;
68579;SDS011;55555;52.136;5.424;2022-09-17T10:48:21;8.20;;;1.20;;
68579;SDS011;55555;52.136;5.424;2022-09-17T10:50:49;10.73;;;1.42;;
68579;SDS011;55555;52.136;5.424;2022-09-17T10:53:19;12.33;;;1.53;;
68579;SDS011;55555;52.136;5.424;2022-09-17T10:56:04;7.55;;;1.35;;
68579;SDS011;55555;52.136;5.424;2022-09-17T10:58:50;7.65;;;1.10;;
68579;SDS011;55555;52.136;5.424;2022-09-17T11:01:43;8.38;;;1.35;;
68579;SDS011;55555;52.136;5.424;2022-09-17T11:07:55;8.33;;;1.70;;
68579;SDS011;55555;52.136;5.424;2022-09-17T11:11:04;7.72;;;1.40;;
68579;SDS011;55555;52.136;5.424;2022-09-17T11:17:11;12.60;;;1.70;;
68579;SDS011;55555;52.136;5.424;2022-09-17T11:20:04;12.50;;;1.58;;
68579;SDS011;55555;52.136;5.424;2022-09-17T11:32:24;11.98;;;1.73;;
68579;SDS011;55555;52.136;5.424;2022-09-17T11:35:26;9.85;;;1.98;;
68579;SDS011;55555;52.136;5.424;2022-09-17T11:38:19;10.17;;;2.03;;
68579;SDS011;55555;52.136;5.424;2022-09-17T11:41:07;12.27;;;2.33;;
68579;SDS011;55555;52.136;5.424;2022-09-17T11:46:48;11.30;;;1.90;;
68579;SDS011;55555;52.136;5.424;2022-09-17T11:52:45;8.03;;;1.27;;
68579;SDS011;55555;52.136;5.424;2022-09-17T11:55:38;13.15;;;2.10;;
68579;SDS011;55555;52.136;5.424;2022-09-17T12:09:35;14.98;;;2.10;;
68579;SDS011;55555;52.136;5.424;2022-09-17T12:12:15;17.10;;;2.67;;
68579;SDS011;55555;52.136;5.424;2022-09-17T12:15:12;18.88;;;2.40;;
68579;SDS011;55555;52.136;5.424;2022-09-17T12:17:48;12.32;;;2.05;;
68579;SDS011;55555;52.136;5.424;2022-09-17T12:20:58;13.87;;;2.10;;
68579;SDS011;55555;52.136;5.424;2022-09-17T12:23:48;10.30;;;1.83;;
68579;SDS011;55555;52.136;5.424;2022-09-17T12:26:29;10.63;;;1.15;;
68579;SDS011;55555;52.136;5.424;2022-09-17T12:29:18;8.73;;;1.50;;
68579;SDS011;55555;52.136;5.424;2022-09-17T12:38:44;6.35;;;1.38;;
68579;SDS011;55555;52.136;5.424;2022-09-17T12:41:17;11.40;;;2.15;;
68579;SDS011;55555;52.136;5.424;2022-09-17T12:58:16;14.52;;;1.95;;
68579;SDS011;55555;52.136;5.424;2022-09-17T13:04:19;10.80;;;1.77;;
68579;SDS011;55555;52.136;5.424;2022-09-17T13:07:37;14.45;;;1.60;;
68579;SDS011;55555;52.136;5.424;2022-09-17T13:16:54;10.07;;;1.40;;
68579;SDS011;55555;52.136;5.424;2022-09-17T13:19:34;14.57;;;2.13;;
68579;SDS011;55555;52.136;5.424;2022-09-17T13:22:15;10.65;;;2.25;;
68579;SDS011;55555;52.136;5.424;2022-09-17T13:24:47;17.15;;;2.47;;
68579;SDS011;55555;52.136;5.424;2022-09-17T13:27:32;16.35;;;2.45;;
68579;SDS011;55555;52.136;5.424;2022-09-17T13:30:06;12.18;;;2.00;;
68579;SDS011;55555;52.136;5.424;2022-09-17T13:37:38;20.83;;;2.13;;
68579;SDS011;55555;52.136;5.424;2022-09-17T13:43:08;14.27;;;2.20;;
68579;SDS011;55555;52.136;5.424;2022-09-17T13:48:44;6.90;;;1.10;;
68579;SDS011;55555;52.136;5.424;2022-09-17T13:53:58;6.78;;;1.10;;
68579;SDS011;55555;52.136;5.424;2022-09-17T13:56:31;6.15;;;1.05;;
68579;SDS011;55555;52.136;5.424;2022-09-17T13:59:12;9.40;;;1.70;;
68579;SDS011;55555;52.136;5.424;2022-09-17T14:09:58;7.93;;;1.15;;
68579;SDS011;55555;52.136;5.424;2022-09-17T14:15:53;11.73;;;1.85;;
68579;SDS011;55555;52.136;5.424;2022-09-17T14:18:44;9.77;;;1.52;;
68579;SDS011;55555;52.136;5.424;2022-09-17T14:21:04;10.75;;;1.42;;
68579;SDS011;55555;52.136;5.424;2022-09-17T14:23:40;8.75;;;1.33;;
68579;SDS011;55555;52.136;5.424;2022-09-17T14:26:23;12.93;;;2.00;;
68579;SDS011;55555;52.136;5.424;2022-09-17T14:29:32;12.45;;;1.65;;
68579;SDS011;55555;52.136;5.424;2022-09-17T14:32:15;7.65;;;2.10;;
68579;SDS011;55555;52.136;5.424;2022-09-17T14:35:01;9.93;;;1.58;;
68579;SDS011;55555;52.136;5.424;2022-09-17T14:37:46;14.68;;;1.33;;
68579;SDS011;55555;52.136;5.424;2022-09-17T14:40:19;9.27;;;1.10;;
68579;SDS011;55555;52.136;5.424;2022-09-17T14:42:50;15.18;;;1.60;;
68579;SDS011;55555;52.136;5.424;2022-09-17T14:45:23;10.70;;;1.63;;
68579;SDS011;55555;52.136;5.424;2022-09-17T14:48:15;9.38;;;1.90;;
68579;SDS011;55555;52.136;5.424;2022-09-17T14:53:46;15.57;;;2.30;;
68579;SDS011;55555;52.136;5.424;2022-09-17T14:56:16;15.63;;;1.80;;
68579;SDS011;55555;52.136;5.424;2022-09-17T14:58:50;16.85;;;2.70;;
68579;SDS011;55555;52.136;5.424;2022-09-17T15:01:23;14.82;;;2.35;;
68579;SDS011;55555;52.136;5.424;2022-09-17T15:04:09;14.85;;;2.00;;
68579;SDS011;55555;52.136;5.424;2022-09-17T15:06:48;10.93;;;1.97;;
68579;SDS011;55555;52.136;5.424;2022-09-17T15:09:23;16.15;;;2.08;;
68579;SDS011;55555;52.136;5.424;2022-09-17T15:11:53;14.43;;;2.03;;
68579;SDS011;55555;52.136;5.424;2022-09-17T15:14:27;12.98;;;2.20;;
68579;SDS011;55555;52.136;5.424;2022-09-17T15:17:00;13.73;;;2.30;;
68579;SDS011;55555;52.136;5.424;2022-09-17T15:19:36;10.97;;;1.90;;
68579;SDS011;55555;52.136;5.424;2022-09-17T15:22:12;9.00;;;1.50;;
68579;SDS011;55555;52.136;5.424;2022-09-17T15:24:58;13.40;;;2.28;;
68579;SDS011;55555;52.136;5.424;2022-09-17T15:27:36;17.38;;;2.08;;
68579;SDS011;55555;52.136;5.424;2022-09-17T15:32:40;13.57;;;1.97;;
68579;SDS011;55555;52.136;5.424;2022-09-17T15:35:17;13.38;;;1.70;;
68579;SDS011;55555;52.136;5.424;2022-09-17T15:37:49;9.63;;;1.58;;
68579;SDS011;55555;52.136;5.424;2022-09-17T15:40:38;9.18;;;1.42;;
68579;SDS011;55555;52.136;5.424;2022-09-17T15:43:15;9.05;;;1.38;;
68579;SDS011;55555;52.136;5.424;2022-09-17T15:45:55;9.73;;;1.37;;
68579;SDS011;55555;52.136;5.424;2022-09-17T15:50:54;7.28;;;1.40;;
68579;SDS011;55555;52.136;5.424;2022-09-17T15:53:24;9.75;;;1.67;;
68579;SDS011;55555;52.136;5.424;2022-09-17T16:04:00;10.15;;;1.65;;
68579;SDS011;55555;52.136;5.424;2022-09-17T16:06:48;10.02;;;1.90;;
68579;SDS011;55555;52.136;5.424;2022-09-17T16:09:52;13.93;;;2.10;;
68579;SDS011;55555;52.136;5.424;2022-09-17T16:12:21;11.53;;;1.87;;
68579;SDS011;55555;52.136;5.424;2022-09-17T16:14:52;13.23;;;1.90;;
68579;SDS011;55555;52.136;5.424;2022-09-17T16:17:58;10.55;;;1.90;;
68579;SDS011;55555;52.136;5.424;2022-09-17T16:20:18;12.73;;;2.22;;
68579;SDS011;55555;52.136;5.424;2022-09-17T16:22:51;11.07;;;1.73;;
68579;SDS011;55555;52.136;5.424;2022-09-17T16:25:22;13.00;;;2.13;;
68579;SDS011;55555;52.136;5.424;2022-09-17T16:27:53;13.85;;;2.25;;
68579;SDS011;55555;52.136;5.424;2022-09-17T16:30:24;14.07;;;1.95;;
68579;SDS011;55555;52.136;5.424;2022-09-17T16:32:51;14.90;;;2.30;;
68579;SDS011;55555;52.136;5.424;2022-09-17T16:35:20;9.10;;;2.17;;
68579;SDS011;55555;52.136;5.424;2022-09-17T16:37:50;15.20;;;2.40;;
68579;SDS011;55555;52.136;5.424;2022-09-17T16:40:22;9.43;;;1.90;;
68579;SDS011;55555;52.136;5.424;2022-09-17T16:42:52;10.27;;;1.80;;
68579;SDS011;55555;52.136;5.424;2022-09-17T16:45:20;14.85;;;2.03;;
68579;SDS011;55555;52.136;5.424;2022-09-17T16:47:53;11.70;;;2.10;;
68579;SDS011;55555;52.136;5.424;2022-09-17T16:50:20;19.93;;;2.67;;
68579;SDS011;55555;52.136;5.424;2022-09-17T16:52:48;15.38;;;2.47;;
68579;SDS011;55555;52.136;5.424;2022-09-17T16:55:16;11.52;;;1.55;;
68579;SDS011;55555;52.136;5.424;2022-09-17T16:57:44;9.20;;;2.08;;
68579;SDS011;55555;52.136;5.424;2022-09-17T17:00:12;12.70;;;2.25;;
68579;SDS011;55555;52.136;5.424;2022-09-17T17:02:42;11.87;;;1.73;;
68579;SDS011;55555;52.136;5.424;2022-09-17T17:05:19;9.43;;;1.73;;
68579;SDS011;55555;52.136;5.424;2022-09-17T17:07:47;9.98;;;1.70;;
68579;SDS011;55555;52.136;5.424;2022-09-17T17:10:15;12.15;;;1.40;;
68579;SDS011;55555;52.136;5.424;2022-09-17T17:12:43;5.93;;;1.10;;
68579;SDS011;55555;52.136;5.424;2022-09-17T17:15:10;6.53;;;1.43;;
68579;SDS011;55555;52.136;5.424;2022-09-17T17:17:37;8.55;;;1.67;;
68579;SDS011;55555;52.136;5.424;2022-09-17T17:20:08;7.68;;;1.40;;
68579;SDS011;55555;52.136;5.424;2022-09-17T17:22:35;8.55;;;1.13;;
68579;SDS011;55555;52.136;5.424;2022-09-17T17:25:03;11.07;;;1.38;;
68579;SDS011;55555;52.136;5.424;2022-09-17T17:27:33;8.53;;;1.23;;
68579;SDS011;55555;52.136;5.424;2022-09-17T17:30:01;6.57;;;1.30;;
68579;SDS011;55555;52.136;5.424;2022-09-17T17:32:31;8.13;;;1.50;;
68579;SDS011;55555;52.136;5.424;2022-09-17T17:34:59;7.75;;;1.48;;
68579;SDS011;55555;52.136;5.424;2022-09-17T17:37:26;8.02;;;1.23;;
68579;SDS011;55555;52.136;5.424;2022-09-17T17:39:53;7.27;;;1.57;;
68579;SDS011;55555;52.136;5.424;2022-09-17T17:42:21;6.30;;;1.25;;
68579;SDS011;55555;52.136;5.424;2022-09-17T17:44:48;6.93;;;1.67;;
68579;SDS011;55555;52.136;5.424;2022-09-17T17:47:15;5.97;;;1.35;;
68579;SDS011;55555;52.136;5.424;2022-09-17T17:49:41;6.22;;;1.38;;
68579;SDS011;55555;52.136;5.424;2022-09-17T17:52:09;8.23;;;1.53;;
68579;SDS011;55555;52.136;5.424;2022-09-17T17:54:36;5.57;;;1.55;;
68579;SDS011;55555;52.136;5.424;2022-09-17T17:57:03;6.97;;;1.33;;
68579;SDS011;55555;52.136;5.424;2022-09-17T17:59:30;6.25;;;1.13;;
68579;SDS011;55555;52.136;5.424;2022-09-17T18:01:57;5.13;;;1.48;;
68579;SDS011;55555;52.136;5.424;2022-09-17T18:04:25;6.43;;;1.07;;
68579;SDS011;55555;52.136;5.424;2022-09-17T18:06:52;10.68;;;1.40;;
68579;SDS011;55555;52.136;5.424;2022-09-17T18:09:19;8.15;;;1.45;;
68579;SDS011;55555;52.136;5.424;2022-09-17T18:11:46;6.43;;;1.25;;
68579;SDS011;55555;52.136;5.424;2022-09-17T18:14:13;6.18;;;1.45;;
68579;SDS011;55555;52.136;5.424;2022-09-17T18:16:40;9.80;;;1.63;;
68579;SDS011;55555;52.136;5.424;2022-09-17T18:19:08;7.82;;;1.65;;
68579;SDS011;55555;52.136;5.424;2022-09-17T18:21:36;5.35;;;1.35;;